Terminal Aerodrome Forecast
Issued by NWS Kansas City/Pleasant Hill, MO

Home | Current Version | Previous Version | Text Only | Print | Product List | Glossary On
Versions: 1 2 3 4 5 6 7 8 9 10 11 12 13
000
FTUS43 KEAX 010915 AAA
TAFMCI
TAF AMD
KMCI 010915Z 0109/0206 35004KT P6SM BKN035
      TEMPO 0112/0115 OVC022
     FM012300 34005KT P6SM SCT040 SCT200=

USA.gov is the U.S. government's official web portal to all federal, state and local government web resources and services.